Accueil
METAR-TAF:

METAR-TAF

Aéroports :

Beauvais, France

Aéroport de Beauvais-Tillé

latitude: 49-28N, longitude: 002-07E, altitude: 109 m

Observation

Le bulletin a été fait il y a 28 minutes, à 00:00 UTC
Vent 4 kt de ouest/sud-ouest
Température 13°C
Humidité 82%
Pression 1012 hPa
Visibilité 10 km ou plus
pas de nuages en-dessous de 1500 mètres et pas de cumulonimbus.

METAR: LFOB 280000Z AUTO 25004KT CAVOK 13/10 Q1012 NOSIG

Heure: 02:28 (00:28 UTC)

Prévision

Le bulletin a été fait il y a 1 heure et 28 minutes, à 23:00 UTC
Prévision valable du 28 à 00 UTC au 28 à 24 UTC
Vent 8 kt de ouest/sud-ouest
Visibilité 10 km ou plus
Nuages épars à une hauteur de 3000 ft
Temporairement
du 28 à 03 UTC au 28 à 07 UTC
Nuages fragmentés à une hauteur de 1200 ft

TAF: LFOB 272300Z 2800/2824 25008KT 9999 SCT030 TEMPO 2803/2807 BKN012

Observations et prévisions météorologiques de plus de 4000 aéroports (messages METAR et TAF).

Les stations disponibles sont représentées par des disques jaunes et rouges sur la carte.

Passer la souris dessus pour voir le nom de la station.

Cliquer dessus pour voir les observations et prévisions météorologiques.

Pour changer de carte: cliquez sur les boutons verts avec une croix noire pour zoomer, sur le bouton vert avec un tiret pour effectuer un zoom arrière, ou sur les flèches vertes pour les cartes adjacentes.


METAR-TAF: